createdAt,value
2023-02-23T00:01:54.241Z,9.20
2023-02-23T00:04:23.648Z,8.20
2023-02-23T00:06:54.811Z,8.23
2023-02-23T00:09:24.985Z,9.60
2023-02-23T00:11:57.467Z,9.50
2023-02-23T00:14:29.151Z,8.97
2023-02-23T00:16:57.159Z,8.40
2023-02-23T00:19:25.214Z,9.20
2023-02-23T00:21:53.937Z,9.70
2023-02-23T00:24:23.299Z,8.27
2023-02-23T00:26:51.663Z,9.50
2023-02-23T00:29:22.178Z,8.83
2023-02-23T00:31:50.974Z,10.43
2023-02-23T00:34:23.940Z,8.77
2023-02-23T00:36:55.577Z,7.97
2023-02-23T00:39:29.078Z,9.50
2023-02-23T00:42:02.476Z,8.13
2023-02-23T00:44:30.237Z,8.10
2023-02-23T00:46:57.529Z,10.10
2023-02-23T00:49:24.919Z,11.00
2023-02-23T00:51:52.408Z,9.70
2023-02-23T00:54:21.189Z,9.20
2023-02-23T00:56:49.068Z,8.30
2023-02-23T00:59:16.919Z,8.07
2023-02-23T01:01:44.372Z,8.40
2023-02-23T01:04:12.723Z,10.80
2023-02-23T01:06:41.659Z,9.93
2023-02-23T01:09:16.149Z,11.00
2023-02-23T01:11:46.997Z,11.00
2023-02-23T01:14:14.458Z,10.30
2023-02-23T01:16:41.665Z,9.73
2023-02-23T01:19:10.333Z,11.10
2023-02-23T01:21:42.745Z,10.13
2023-02-23T01:24:29.386Z,10.13
2023-02-23T01:27:14.616Z,8.83
2023-02-23T01:30:00.003Z,9.70
2023-02-23T01:32:27.461Z,10.27
2023-02-23T01:34:54.679Z,9.50
2023-02-23T01:37:22.005Z,10.80
2023-02-23T01:39:49.243Z,11.90
2023-02-23T01:42:16.433Z,9.60
2023-02-23T01:44:43.635Z,9.80
2023-02-23T01:47:14.265Z,11.17
2023-02-23T01:49:42.083Z,11.73
2023-02-23T01:52:13.048Z,11.00
2023-02-23T01:54:50.567Z,13.23
2023-02-23T01:57:22.176Z,11.77
2023-02-23T01:59:51.192Z,12.20
2023-02-23T02:02:22.319Z,11.50
2023-02-23T02:04:52.382Z,12.07
2023-02-23T02:07:25.955Z,13.10
2023-02-23T02:10:13.277Z,12.83
2023-02-23T02:12:45.873Z,11.47
2023-02-23T02:15:20.006Z,11.63
2023-02-23T02:18:24.527Z,12.00
2023-02-23T02:21:07.317Z,11.13
2023-02-23T02:24:00.897Z,12.07
2023-02-23T02:26:46.664Z,11.80
2023-02-23T02:29:50.546Z,12.47
2023-02-23T02:32:55.498Z,11.70
2023-02-23T02:35:41.263Z,10.53
2023-02-23T02:38:33.537Z,11.83
2023-02-23T02:41:31.288Z,12.13
2023-02-23T02:44:07.258Z,11.70
2023-02-23T02:46:41.611Z,11.13
2023-02-23T02:49:27.830Z,10.77
2023-02-23T02:52:11.320Z,10.70
2023-02-23T02:54:53.485Z,10.97
2023-02-23T02:57:25.294Z,10.53
2023-02-23T03:00:10.903Z,11.30
2023-02-23T03:02:58.715Z,11.60
2023-02-23T03:05:53.317Z,10.77
2023-02-23T03:08:54.380Z,12.07
2023-02-23T03:11:43.671Z,11.60
2023-02-23T03:14:56.958Z,10.87
2023-02-23T03:18:07.472Z,11.50
2023-02-23T03:20:53.301Z,11.50
2023-02-23T03:23:45.814Z,13.07
2023-02-23T03:26:58.511Z,12.87
2023-02-23T03:29:51.930Z,12.23
2023-02-23T03:32:50.627Z,12.63
2023-02-23T03:35:57.947Z,13.10
2023-02-23T03:38:46.250Z,11.20
2023-02-23T03:41:33.938Z,12.17
2023-02-23T03:44:34.044Z,11.23
2023-02-23T03:47:22.070Z,11.13
2023-02-23T03:50:09.084Z,12.50
2023-02-23T03:53:10.156Z,11.97
2023-02-23T03:55:59.554Z,11.80
2023-02-23T03:58:54.994Z,11.40
2023-02-23T04:01:42.342Z,11.70
2023-02-23T04:04:47.483Z,11.77
2023-02-23T04:07:55.419Z,11.53
2023-02-23T04:11:09.661Z,10.10
2023-02-23T04:13:39.211Z,12.30
2023-02-23T04:16:10.355Z,12.70
2023-02-23T04:18:39.690Z,12.67
2023-02-23T04:21:07.902Z,13.27
2023-02-23T04:23:37.247Z,13.60
2023-02-23T04:26:05.277Z,13.57
2023-02-23T04:28:32.525Z,13.13
2023-02-23T04:31:00.765Z,13.13
2023-02-23T04:33:28.120Z,13.20
2023-02-23T04:35:55.580Z,14.10
2023-02-23T04:38:23.445Z,12.80
2023-02-23T04:40:50.834Z,13.70
2023-02-23T04:43:18.104Z,11.60
2023-02-23T04:45:45.412Z,13.50
2023-02-23T04:48:12.632Z,11.90
2023-02-23T04:50:39.824Z,12.00
2023-02-23T04:53:07.303Z,12.23
2023-02-23T04:55:34.592Z,11.13
2023-02-23T04:58:03.047Z,11.17
2023-02-23T05:00:30.405Z,14.10
2023-02-23T05:02:58.249Z,12.07
2023-02-23T05:05:25.574Z,13.27
2023-02-23T05:07:54.617Z,13.77
2023-02-23T05:10:21.851Z,12.87
2023-02-23T05:12:49.053Z,12.67
2023-02-23T05:15:16.658Z,13.47
2023-02-23T05:17:44.026Z,13.37
2023-02-23T05:20:12.619Z,12.23
2023-02-23T05:22:40.544Z,12.03
2023-02-23T05:25:10.420Z,13.17
2023-02-23T05:27:38.003Z,12.50
2023-02-23T05:30:07.944Z,12.70
2023-02-23T05:32:35.669Z,11.60
2023-02-23T05:35:03.614Z,14.10
2023-02-23T05:37:30.891Z,14.07
2023-02-23T05:39:58.154Z,13.60
2023-02-23T05:42:25.495Z,13.90
2023-02-23T05:44:52.688Z,13.90
2023-02-23T05:47:19.899Z,12.80
2023-02-23T05:49:47.285Z,13.43
2023-02-23T05:52:14.482Z,14.70
2023-02-23T05:54:41.867Z,13.20
2023-02-23T05:57:09.052Z,15.03
2023-02-23T05:59:36.266Z,14.10
2023-02-23T06:02:06.124Z,14.27
2023-02-23T06:04:33.902Z,15.70
2023-02-23T06:07:01.350Z,16.87
2023-02-23T06:09:28.581Z,15.20
2023-02-23T06:11:55.872Z,14.53
2023-02-23T06:14:23.126Z,13.77
2023-02-23T06:16:50.422Z,14.90
2023-02-23T06:19:17.698Z,15.60
2023-02-23T06:21:45.159Z,15.60
2023-02-23T06:24:12.540Z,15.20
2023-02-23T06:26:40.059Z,15.00
2023-02-23T06:29:07.311Z,14.87
2023-02-23T06:31:34.635Z,12.93
2023-02-23T06:34:01.864Z,14.47
2023-02-23T06:36:29.146Z,15.50
2023-02-23T06:38:59.847Z,14.27
2023-02-23T06:41:27.326Z,14.97
2023-02-23T06:43:54.548Z,14.20
2023-02-23T06:46:21.978Z,13.17
2023-02-23T06:48:49.320Z,12.93
2023-02-23T06:51:16.820Z,14.83
2023-02-23T06:53:44.199Z,15.67
2023-02-23T06:56:14.075Z,16.00
2023-02-23T06:58:43.326Z,15.57
2023-02-23T07:01:12.626Z,19.03
2023-02-23T07:03:40.069Z,18.13
2023-02-23T07:06:08.077Z,18.50
2023-02-23T07:08:35.930Z,15.53
2023-02-23T07:11:11.854Z,15.77
2023-02-23T07:13:39.996Z,19.40
2023-02-23T07:16:08.287Z,16.00
2023-02-23T07:18:35.651Z,16.60
2023-02-23T07:21:02.956Z,17.07
2023-02-23T07:23:30.140Z,17.30
2023-02-23T07:25:58.160Z,16.63
2023-02-23T07:28:27.439Z,15.43
2023-02-23T07:30:58.934Z,17.63
2023-02-23T07:33:26.338Z,17.20
2023-02-23T07:35:53.605Z,17.23
2023-02-23T07:38:20.885Z,16.87
2023-02-23T07:40:50.985Z,19.17
2023-02-23T07:43:18.356Z,21.33
2023-02-23T07:45:46.633Z,18.87
2023-02-23T07:48:14.301Z,16.53
2023-02-23T07:50:42.523Z,16.30
2023-02-23T07:53:10.534Z,16.90
2023-02-23T07:55:38.577Z,14.97
2023-02-23T07:58:06.399Z,16.27
2023-02-23T08:00:34.931Z,16.93
2023-02-23T08:03:02.340Z,15.90
2023-02-23T08:05:29.680Z,15.37
2023-02-23T08:08:01.446Z,17.40
2023-02-23T08:10:28.716Z,16.50
2023-02-23T08:12:57.623Z,16.10
2023-02-23T08:15:25.570Z,15.77
2023-02-23T08:17:52.897Z,16.10
2023-02-23T08:20:20.229Z,16.67
2023-02-23T08:22:50.014Z,16.70
2023-02-23T08:25:18.421Z,17.37
2023-02-23T08:27:46.844Z,15.47
2023-02-23T08:30:15.563Z,15.40
2023-02-23T08:32:43.076Z,16.57
2023-02-23T08:35:11.048Z,15.73
2023-02-23T08:37:38.274Z,16.90
2023-02-23T08:40:06.128Z,16.00
2023-02-23T08:42:33.680Z,17.90
2023-02-23T08:45:01.615Z,17.07
2023-02-23T08:47:30.060Z,16.70
2023-02-23T08:49:57.298Z,14.57
2023-02-23T08:52:25.452Z,13.60
2023-02-23T08:54:52.929Z,13.40
2023-02-23T08:57:20.209Z,13.93
2023-02-23T08:59:47.633Z,13.27
2023-02-23T09:02:15.655Z,14.07
2023-02-23T09:04:43.681Z,13.20
2023-02-23T09:07:15.793Z,13.70
2023-02-23T09:09:43.141Z,13.73
2023-02-23T09:12:10.382Z,13.97
2023-02-23T09:14:37.736Z,13.73
2023-02-23T09:17:05.223Z,15.50
2023-02-23T09:19:32.437Z,13.63
2023-02-23T09:21:59.675Z,15.77
2023-02-23T09:24:26.950Z,14.50
2023-02-23T09:26:54.206Z,14.37
2023-02-23T09:29:23.220Z,16.10
2023-02-23T09:31:55.195Z,14.43
2023-02-23T09:34:22.649Z,14.03
2023-02-23T09:36:51.383Z,14.83
2023-02-23T09:39:24.075Z,14.30
2023-02-23T09:42:09.084Z,13.70
2023-02-23T09:45:00.516Z,14.20
2023-02-23T09:48:00.332Z,13.17
2023-02-23T09:50:30.196Z,13.90
2023-02-23T09:53:07.528Z,15.40
2023-02-23T09:55:35.465Z,14.10
2023-02-23T09:58:10.907Z,15.93
2023-02-23T10:00:43.091Z,14.20
2023-02-23T10:03:14.378Z,13.83
2023-02-23T10:05:47.941Z,14.20
2023-02-23T10:08:20.363Z,14.87
2023-02-23T10:11:10.506Z,15.07
2023-02-23T10:13:54.044Z,13.93
2023-02-23T10:16:33.232Z,12.87
2023-02-23T10:19:29.358Z,15.27
2023-02-23T10:22:07.547Z,14.90
2023-02-23T10:24:42.264Z,14.60
2023-02-23T10:27:25.306Z,15.43
2023-02-23T10:30:00.652Z,15.30
2023-02-23T10:32:49.111Z,14.90
2023-02-23T10:35:21.128Z,14.57
2023-02-23T10:37:49.597Z,13.80
2023-02-23T10:40:23.463Z,15.77
2023-02-23T10:43:01.639Z,14.40
2023-02-23T10:45:30.988Z,15.07
2023-02-23T10:48:06.175Z,15.30
2023-02-23T10:50:36.212Z,14.60
2023-02-23T10:53:32.807Z,13.90
2023-02-23T10:56:15.158Z,14.50
2023-02-23T10:58:46.524Z,15.03
2023-02-23T11:02:00.416Z,14.30
2023-02-23T11:04:31.179Z,14.67
2023-02-23T11:07:15.274Z,14.60
2023-02-23T11:09:47.415Z,14.73
2023-02-23T11:12:23.004Z,15.80
2023-02-23T11:14:51.992Z,15.00
2023-02-23T11:17:36.407Z,14.83
2023-02-23T11:20:33.415Z,16.10
2023-02-23T11:23:06.538Z,15.50
2023-02-23T11:25:43.389Z,15.57
2023-02-23T11:28:25.243Z,15.83
2023-02-23T11:30:52.531Z,13.57
2023-02-23T11:33:39.778Z,14.93
2023-02-23T11:36:29.837Z,13.30
2023-02-23T11:39:08.153Z,13.83
2023-02-23T11:41:37.470Z,12.47
2023-02-23T11:44:06.242Z,13.53
2023-02-23T11:46:37.876Z,13.70
2023-02-23T11:49:14.857Z,13.33
2023-02-23T11:51:49.229Z,14.33
2023-02-23T11:54:27.462Z,13.90
2023-02-23T11:56:58.221Z,14.77
2023-02-23T11:59:47.796Z,13.20
2023-02-23T12:02:23.235Z,14.93
2023-02-23T12:04:54.672Z,16.70
2023-02-23T12:07:44.003Z,13.30
2023-02-23T12:10:26.234Z,13.13
2023-02-23T12:13:24.247Z,15.30
2023-02-23T12:15:58.724Z,15.67
2023-02-23T12:18:28.857Z,14.67
2023-02-23T12:21:01.090Z,13.13
2023-02-23T12:23:34.871Z,14.13
2023-02-23T12:26:11.895Z,13.73
2023-02-23T12:29:23.702Z,13.00
2023-02-23T12:32:19.864Z,13.53
2023-02-23T12:34:50.387Z,13.03
2023-02-23T12:37:28.272Z,13.13
2023-02-23T12:40:12.741Z,13.83
2023-02-23T12:42:54.540Z,14.43
2023-02-23T12:45:55.839Z,12.83
2023-02-23T12:48:35.729Z,13.27
2023-02-23T12:51:19.197Z,13.13
2023-02-23T12:53:46.572Z,12.70
2023-02-23T12:56:56.256Z,14.23
2023-02-23T12:59:37.994Z,15.00
2023-02-23T13:02:19.167Z,14.27
2023-02-23T13:05:15.587Z,14.57
2023-02-23T13:08:12.862Z,14.37
2023-02-23T13:11:01.392Z,15.07
2023-02-23T13:13:34.461Z,15.07
2023-02-23T13:16:09.236Z,14.40
2023-02-23T13:19:03.321Z,14.50
2023-02-23T13:21:44.837Z,13.73
2023-02-23T13:24:29.288Z,15.13
2023-02-23T13:27:16.285Z,16.27
2023-02-23T13:29:55.249Z,14.90
2023-02-23T13:32:24.573Z,13.23
2023-02-23T13:34:57.774Z,14.27
2023-02-23T13:37:32.288Z,14.60
2023-02-23T13:40:08.679Z,15.23
2023-02-23T13:42:50.950Z,15.30
2023-02-23T13:45:22.795Z,16.33
2023-02-23T13:47:54.185Z,15.33
2023-02-23T13:50:39.500Z,15.73
2023-02-23T13:53:25.159Z,15.77
2023-02-23T13:55:54.234Z,17.33
2023-02-23T13:58:32.269Z,15.87
2023-02-23T14:01:17.194Z,14.47
2023-02-23T14:03:54.550Z,15.80
2023-02-23T14:06:25.448Z,14.17
2023-02-23T14:09:22.099Z,15.57
2023-02-23T14:11:53.777Z,16.40
2023-02-23T14:14:33.418Z,15.60
2023-02-23T14:17:12.064Z,15.53
2023-02-23T14:19:44.877Z,14.60
2023-02-23T14:22:22.090Z,14.90
2023-02-23T14:25:28.424Z,16.50
2023-02-23T14:28:22.102Z,17.00
2023-02-23T14:30:59.634Z,15.20
2023-02-23T14:33:52.867Z,17.90
2023-02-23T14:36:28.905Z,15.63
2023-02-23T14:39:27.488Z,16.40
2023-02-23T14:42:00.200Z,15.17
2023-02-23T14:44:31.473Z,15.43
2023-02-23T14:47:13.996Z,15.60
2023-02-23T14:49:50.135Z,15.93
2023-02-23T14:52:27.208Z,16.40
2023-02-23T14:55:12.568Z,15.47
2023-02-23T14:57:43.572Z,15.60
2023-02-23T15:00:32.671Z,15.20
2023-02-23T15:03:13.779Z,16.63
2023-02-23T15:06:01.124Z,17.57
2023-02-23T15:08:31.029Z,18.47
2023-02-23T15:11:13.473Z,18.43
2023-02-23T15:13:47.303Z,17.20
2023-02-23T15:16:35.035Z,17.67
2023-02-23T15:19:04.843Z,18.43
2023-02-23T15:21:33.820Z,18.50
2023-02-23T15:24:13.167Z,17.00
2023-02-23T15:26:43.723Z,16.10
2023-02-23T15:29:11.034Z,15.70
2023-02-23T15:31:40.951Z,16.97
2023-02-23T15:34:11.708Z,17.33
2023-02-23T15:36:41.312Z,16.20
2023-02-23T15:39:14.811Z,16.03
2023-02-23T15:41:44.613Z,17.57
2023-02-23T15:44:18.969Z,16.00
2023-02-23T15:46:52.983Z,16.10
2023-02-23T15:49:22.032Z,16.03
2023-02-23T15:52:02.335Z,15.43
2023-02-23T15:54:52.287Z,16.80
2023-02-23T15:57:31.966Z,17.90
2023-02-23T16:00:02.027Z,17.97
2023-02-23T16:02:30.292Z,16.23
2023-02-23T16:05:10.950Z,16.83
2023-02-23T16:07:43.478Z,16.60
2023-02-23T16:10:24.127Z,17.30
2023-02-23T16:12:54.006Z,16.83
2023-02-23T16:15:28.058Z,17.30
2023-02-23T16:18:05.016Z,16.50
2023-02-23T16:20:41.610Z,17.53
2023-02-23T16:23:33.201Z,18.80
2023-02-23T16:26:10.712Z,16.90
2023-02-23T16:28:43.770Z,17.67
2023-02-23T16:31:16.805Z,18.30
2023-02-23T16:33:51.543Z,17.63
2023-02-23T16:36:22.559Z,18.87
2023-02-23T16:39:06.673Z,17.80
2023-02-23T16:41:35.246Z,17.03
2023-02-23T16:44:05.801Z,17.40
2023-02-23T16:46:54.435Z,18.17
2023-02-23T16:49:23.546Z,19.10
2023-02-23T16:51:52.747Z,15.13
2023-02-23T16:54:20.190Z,17.40
2023-02-23T16:56:48.266Z,16.47
2023-02-23T16:59:18.267Z,17.73
2023-02-23T17:01:46.684Z,19.80
2023-02-23T17:04:15.548Z,18.90
2023-02-23T17:06:43.850Z,21.03
2023-02-23T17:09:15.139Z,21.07
2023-02-23T17:11:47.259Z,19.70
2023-02-23T17:14:24.617Z,18.57
2023-02-23T17:17:18.751Z,17.47
2023-02-23T17:19:46.822Z,16.63
2023-02-23T17:22:14.986Z,16.57
2023-02-23T17:24:43.231Z,17.10
2023-02-23T17:27:11.585Z,14.70
2023-02-23T17:29:57.570Z,16.27
2023-02-23T17:32:24.937Z,15.50
2023-02-23T17:34:53.498Z,16.37
2023-02-23T17:37:20.720Z,15.37
2023-02-23T17:39:51.259Z,15.63
2023-02-23T17:42:18.967Z,16.90
2023-02-23T17:44:46.167Z,16.67
2023-02-23T17:47:13.428Z,17.00
2023-02-23T17:49:40.776Z,15.80
2023-02-23T17:52:08.043Z,15.80
2023-02-23T17:54:35.430Z,16.23
2023-02-23T17:57:03.349Z,15.70
2023-02-23T17:59:30.731Z,16.37
2023-02-23T18:01:58.148Z,16.37
2023-02-23T18:04:25.602Z,15.60
2023-02-23T18:06:52.810Z,16.00
2023-02-23T18:09:20.265Z,15.53
2023-02-23T18:11:47.905Z,15.40
2023-02-23T18:14:16.747Z,16.00
2023-02-23T18:16:44.026Z,14.63
2023-02-23T18:19:11.352Z,15.00
2023-02-23T18:21:40.907Z,18.53
2023-02-23T18:24:08.366Z,16.97
2023-02-23T18:26:35.955Z,18.30
2023-02-23T18:29:04.946Z,17.47
2023-02-23T18:31:33.255Z,17.30
2023-02-23T18:34:02.185Z,18.80
2023-02-23T18:36:31.946Z,17.67
2023-02-23T18:39:00.977Z,16.40
2023-02-23T18:41:31.027Z,17.93
2023-02-23T18:44:02.873Z,16.50
2023-02-23T18:46:31.130Z,17.80
2023-02-23T18:48:59.200Z,16.70
2023-02-23T18:51:26.922Z,16.73
2023-02-23T18:53:54.849Z,17.17
2023-02-23T18:56:25.510Z,16.33
2023-02-23T18:58:55.543Z,16.80
2023-02-23T19:01:33.416Z,15.10
2023-02-23T19:04:02.575Z,16.80
2023-02-23T19:06:30.874Z,16.97
2023-02-23T19:09:00.292Z,17.60
2023-02-23T19:11:30.532Z,16.97
2023-02-23T19:14:00.596Z,16.33
2023-02-23T19:16:33.096Z,16.20
2023-02-23T19:19:01.359Z,16.33
2023-02-23T19:21:29.195Z,17.27
2023-02-23T19:23:57.866Z,16.33
2023-02-23T19:26:26.226Z,17.40
2023-02-23T19:28:53.950Z,17.10
2023-02-23T19:31:24.169Z,17.57
2023-02-23T19:33:53.864Z,17.80
2023-02-23T19:36:23.523Z,16.40
2023-02-23T19:38:51.107Z,17.63
2023-02-23T19:41:20.373Z,21.13
2023-02-23T19:43:48.510Z,21.43
2023-02-23T19:46:17.535Z,20.77
2023-02-23T19:48:48.767Z,23.87
2023-02-23T19:51:16.041Z,22.20
2023-02-23T19:53:43.496Z,23.83
2023-02-23T19:56:13.565Z,21.47
2023-02-23T19:58:49.699Z,25.27
2023-02-23T20:01:20.880Z,23.37
2023-02-23T20:03:55.640Z,22.80
2023-02-23T20:06:27.583Z,21.00
2023-02-23T20:08:55.456Z,20.33
2023-02-23T20:11:23.771Z,21.40
2023-02-23T20:13:53.087Z,20.80
2023-02-23T20:16:21.378Z,21.80
2023-02-23T20:18:48.911Z,21.70
2023-02-23T20:21:23.557Z,21.77
2023-02-23T20:23:51.995Z,18.80
2023-02-23T20:26:23.805Z,18.90
2023-02-23T20:28:51.294Z,18.57
2023-02-23T20:31:22.966Z,19.47
2023-02-23T20:33:50.720Z,20.23
2023-02-23T20:36:19.619Z,20.87
2023-02-23T20:38:46.815Z,17.73
2023-02-23T20:41:14.317Z,19.30
2023-02-23T20:43:43.769Z,18.17
2023-02-23T20:46:13.762Z,19.93
2023-02-23T20:48:44.397Z,22.77
2023-02-23T20:51:13.075Z,21.20
2023-02-23T20:53:42.316Z,19.23
2023-02-23T20:56:10.291Z,21.30
2023-02-23T20:58:39.889Z,21.80
2023-02-23T21:01:16.897Z,19.17
2023-02-23T21:03:44.280Z,19.00
2023-02-23T21:06:11.723Z,19.30
2023-02-23T21:08:39.892Z,21.20
2023-02-23T21:11:08.989Z,23.10
2023-02-23T21:13:36.752Z,22.70
2023-02-23T21:16:04.134Z,21.70
2023-02-23T21:18:32.725Z,19.37
2023-02-23T21:21:09.778Z,18.60
2023-02-23T21:23:44.994Z,17.73
2023-02-23T21:26:15.914Z,19.53
2023-02-23T21:28:47.027Z,17.97
2023-02-23T21:31:15.083Z,17.17
2023-02-23T21:33:44.023Z,16.03
2023-02-23T21:36:12.773Z,17.60
2023-02-23T21:38:42.431Z,15.60
2023-02-23T21:41:11.275Z,15.33
2023-02-23T21:43:40.592Z,15.03
2023-02-23T21:46:14.559Z,16.37
2023-02-23T21:48:43.114Z,16.30
2023-02-23T21:51:12.544Z,15.17
2023-02-23T21:53:41.219Z,16.50
2023-02-23T21:56:14.139Z,15.67
2023-02-23T21:58:49.759Z,16.37
2023-02-23T22:01:20.442Z,15.50
2023-02-23T22:03:48.397Z,15.83
2023-02-23T22:06:19.248Z,15.77
2023-02-23T22:08:51.534Z,17.40
2023-02-23T22:11:22.086Z,15.90
2023-02-23T22:13:54.449Z,19.30
2023-02-23T22:16:22.125Z,18.57
2023-02-23T22:19:08.228Z,17.63
2023-02-23T22:21:45.022Z,18.90
2023-02-23T22:24:13.895Z,20.80
2023-02-23T22:26:50.597Z,19.83
2023-02-23T22:29:18.043Z,20.20
2023-02-23T22:31:45.489Z,17.47
2023-02-23T22:34:12.822Z,17.30
2023-02-23T22:36:40.182Z,17.60
2023-02-23T22:39:10.011Z,17.30
2023-02-23T22:41:43.454Z,16.73
2023-02-23T22:44:16.843Z,16.00
2023-02-23T22:46:48.107Z,14.27
2023-02-23T22:49:15.958Z,16.33
2023-02-23T22:51:43.980Z,15.53
2023-02-23T22:54:13.371Z,15.10
2023-02-23T22:56:42.343Z,15.63
2023-02-23T22:59:11.161Z,13.97
2023-02-23T23:01:44.576Z,14.90
2023-02-23T23:04:12.445Z,17.00
2023-02-23T23:06:41.481Z,16.73
2023-02-23T23:09:14.951Z,14.50
2023-02-23T23:11:42.508Z,15.23
2023-02-23T23:14:11.273Z,15.27
2023-02-23T23:16:48.166Z,15.30
2023-02-23T23:19:19.340Z,15.33
2023-02-23T23:21:46.757Z,14.63
2023-02-23T23:24:15.250Z,13.60
2023-02-23T23:26:44.391Z,14.23
2023-02-23T23:29:14.834Z,13.97
2023-02-23T23:31:46.577Z,14.87
2023-02-23T23:34:16.730Z,14.77
2023-02-23T23:36:48.774Z,14.60
2023-02-23T23:39:17.946Z,11.10
2023-02-23T23:41:48.078Z,13.80
2023-02-23T23:44:24.026Z,12.80
2023-02-23T23:46:51.520Z,13.57
2023-02-23T23:49:21.602Z,12.50
2023-02-23T23:51:51.636Z,13.83
2023-02-23T23:54:21.724Z,14.07
2023-02-23T23:56:50.596Z,13.37
2023-02-23T23:59:21.377Z,13.10
